Time;durP1;ratioP1;P1;durP2;ratioP2;P2;SDS_P1;SDS_P2;PMS_P1;PMS_P2;Temp;Humidity;BMP_temperature;BMP_pressure;BME280_temperature;BME280_humidity;BME280_pressure;Samples;Min_cycle;Max_cycle;Signal;HPM_P1;HPM_P2
2022/11/17 00:01:18;;;;;;;9.75;6.85;;;4.80;84.20;;;2.92;100.00;94466.47;4910337;28;20417;-68
2022/11/17 00:03:46;;;;;;;17.48;7.05;;;4.80;84.20;;;2.92;100.00;94461.28;4916164;28;20350;-63
2022/11/17 00:06:12;;;;;;;10.32;6.85;;;4.80;84.20;;;2.93;100.00;94457.69;4901601;28;20037;-62
2022/11/17 00:08:38;;;;;;;14.35;7.25;;;4.80;84.20;;;2.93;100.00;94455.09;4924154;28;20396;-63
2022/11/17 00:11:05;;;;;;;23.20;6.90;;;4.80;84.40;;;2.91;100.00;94459.66;4909339;28;20554;-62
2022/11/17 00:16:18;;;;;;;21.17;7.25;;;4.80;84.60;;;2.93;100.00;94462.88;4915105;28;20350;-62
2022/11/17 00:21:29;;;;;;;29.08;7.32;;;4.80;84.50;;;2.93;100.00;94462.88;4933821;28;20610;-60
2022/11/17 00:23:55;;;;;;;13.00;6.88;;;4.80;84.50;;;2.95;100.00;94470.53;4960851;28;20060;-60
2022/11/17 00:26:25;;;;;;;20.88;6.63;;;4.80;84.60;;;2.97;100.00;94471.94;4960487;28;20485;-61
2022/11/17 00:29:06;;;;;;;10.38;6.63;;;4.80;84.50;;;2.97;100.00;94464.16;4962844;28;20037;-60
2022/11/17 00:34:20;;;;;;;12.00;6.20;;;4.90;84.80;;;2.96;100.00;94469.53;4978681;28;20256;-60
2022/11/17 00:36:50;;;;;;;12.52;5.85;;;4.80;84.80;;;2.96;100.00;94472.94;4950544;28;20115;-60
2022/11/17 00:39:18;;;;;;;18.75;6.45;;;4.80;84.90;;;2.99;100.00;94466.56;4986431;28;20063;-59
2022/11/17 00:41:44;;;;;;;19.42;6.43;;;4.80;84.90;;;2.96;100.00;94462.53;4985314;28;20125;-62
2022/11/17 00:44:10;;;;;;;46.70;6.40;;;4.80;84.90;;;2.95;100.00;94462.72;4985040;28;20303;-62
2022/11/17 00:46:36;;;;;;;26.63;6.35;;;4.80;84.80;;;2.91;100.00;94457.06;4984414;28;20463;-62
2022/11/17 00:49:06;;;;;;;27.67;5.90;;;4.80;85.10;;;2.91;100.00;94459.66;4991535;28;20037;-60
2022/11/17 00:51:32;;;;;;;15.57;5.60;;;4.70;85.10;;;2.89;100.00;94459.03;4980157;28;20029;-62
2022/11/17 00:53:58;;;;;;;12.52;5.10;;;4.70;85.00;;;2.90;100.00;94458.06;4966957;28;20198;-61
2022/11/17 00:56:27;;;;;;;17.25;5.45;;;4.70;84.80;;;2.89;100.00;94456.44;4969218;28;20287;-62
2022/11/17 00:58:53;;;;;;;8.85;5.70;;;4.80;84.70;;;2.90;100.00;94462.44;4934500;28;20418;-62
2022/11/17 01:01:20;;;;;;;14.63;5.47;;;4.80;84.90;;;2.91;100.00;94459.66;4939625;28;20323;-62
2022/11/17 01:03:46;;;;;;;9.43;4.93;;;4.80;84.80;;;2.91;100.00;94457.06;4925756;28;20261;-61
2022/11/17 01:06:17;;;;;;;6.10;4.90;;;4.80;84.90;;;2.93;100.00;94456.88;4902877;28;20441;-61
2022/11/17 01:08:43;;;;;;;7.85;5.07;;;4.80;84.70;;;2.93;100.00;94457.69;4920264;28;20366;-61
2022/11/17 01:11:11;;;;;;;5.50;5.00;;;4.80;84.70;;;2.95;100.00;94447.94;4909880;28;20287;-61
2022/11/17 01:13:38;;;;;;;5.80;4.75;;;4.90;84.70;;;2.98;100.00;94442.38;4924074;28;20338;-63
2022/11/17 01:16:13;;;;;;;6.60;4.70;;;4.90;84.60;;;3.00;100.00;94442.19;4908439;28;20338;-64
2022/11/17 01:18:39;;;;;;;5.50;4.93;;;4.90;84.60;;;3.04;100.00;94438.25;4910162;28;20863;-66
2022/11/17 01:21:20;;;;;;;6.72;4.68;;;4.90;84.40;;;3.03;100.00;94442.63;4923183;28;20362;-64
2022/11/17 01:23:49;;;;;;;6.20;4.55;;;5.00;84.40;;;3.07;100.00;94443.88;4925609;28;20548;-71
2022/11/17 01:26:18;;;;;;;5.82;4.82;;;5.00;84.40;;;3.07;100.00;94443.88;4924828;28;20242;-69
2022/11/17 01:28:45;;;;;;;5.45;4.35;;;5.00;84.10;;;3.08;100.00;94444.69;4930848;23;20042;-69
2022/11/17 01:31:13;;;;;;;5.38;4.75;;;5.00;84.10;;;3.10;100.00;94442.69;4866750;28;20491;-67
2022/11/17 01:33:40;;;;;;;5.40;4.63;;;5.00;84.20;;;3.13;100.00;94438.94;4866028;28;20339;-68
2022/11/17 01:36:12;;;;;;;5.07;4.40;;;5.10;84.20;;;3.14;100.00;94430.16;4882057;28;20366;-68
2022/11/17 01:38:38;;;;;;;5.93;4.43;;;5.10;84.10;;;3.16;100.00;94439.38;4886547;28;20480;-68
2022/11/17 01:41:06;;;;;;;5.68;4.82;;;5.10;84.10;;;3.19;100.00;94446.00;4869116;28;20567;-69
2022/11/17 01:43:43;;;;;;;5.28;4.50;;;5.10;84.30;;;3.21;100.00;94439.63;4851966;28;20391;-68
2022/11/17 01:46:24;;;;;;;6.05;4.72;;;5.20;84.30;;;3.25;100.00;94432.28;4886060;28;20551;-68
2022/11/17 01:48:51;;;;;;;6.10;5.03;;;5.20;84.40;;;3.24;100.00;94428.06;4903471;28;20428;-69
2022/11/17 01:51:17;;;;;;;5.80;4.80;;;5.20;84.20;;;3.25;100.00;94434.88;4880388;28;20479;-68
2022/11/17 01:53:44;;;;;;;6.88;5.15;;;5.20;84.00;;;3.26;100.00;94428.69;4853337;28;20340;-68
2022/11/17 01:56:14;;;;;;;5.13;4.57;;;5.20;84.20;;;3.29;100.00;94430.91;4853255;28;20869;-68
2022/11/17 01:58:44;;;;;;;6.15;5.00;;;5.20;84.30;;;3.31;100.00;94423.72;4861004;28;20270;-68
2022/11/17 02:01:10;;;;;;;6.40;4.97;;;5.30;84.30;;;3.31;100.00;94416.75;4883762;28;20368;-69
2022/11/17 02:03:36;;;;;;;6.00;4.90;;;5.30;84.20;;;3.32;100.00;94420.16;4869749;28;20502;-68
2022/11/17 02:06:06;;;;;;;9.73;5.30;;;5.30;84.00;;;3.35;100.00;94423.16;4855845;28;20311;-68
2022/11/17 02:08:32;;;;;;;6.90;4.97;;;5.30;83.70;;;3.36;100.00;94432.56;4894235;28;20382;-68
2022/11/17 02:10:59;;;;;;;5.78;4.72;;;5.30;83.70;;;3.34;100.00;94424.16;4869285;28;20435;-68
2022/11/17 02:13:26;;;;;;;5.90;4.78;;;5.30;83.50;;;3.34;100.00;94423.34;4856057;28;20598;-68
2022/11/17 02:15:52;;;;;;;5.55;4.95;;;5.30;83.60;;;3.34;100.00;94428.56;4853059;28;20326;-68
2022/11/17 02:18:19;;;;;;;9.27;4.93;;;5.20;83.40;;;3.32;100.00;94420.16;4853177;28;20408;-69
2022/11/17 02:21:17;;;;;;;6.75;4.78;;;5.20;83.40;;;3.31;100.00;94423.72;4863900;28;20786;-68
2022/11/17 02:24:19;;;;;;;5.18;4.68;;;5.20;83.30;;;3.29;100.00;94415.31;4885016;28;20448;-68
2022/11/17 02:27:25;;;;;;;5.47;4.55;;;5.20;83.40;;;3.27;100.00;94407.72;4857082;28;20569;-68
2022/11/17 02:30:05;;;;;;;5.78;4.88;;;5.20;83.50;;;3.24;100.00;94391.69;4916026;28;20367;-69
2022/11/17 02:32:58;;;;;;;6.45;4.40;;;5.10;83.50;;;3.21;100.00;94392.88;4894272;28;20295;-69
2022/11/17 02:35:53;;;;;;;6.55;4.72;;;5.10;83.70;;;3.22;100.00;94388.47;4915578;28;20512;-68
2022/11/17 02:38:41;;;;;;;5.90;4.95;;;5.10;83.80;;;3.23;100.00;94384.91;4871773;28;20387;-68
2022/11/17 02:41:11;;;;;;;6.82;5.03;;;5.10;83.90;;;3.23;100.00;94374.50;4891282;28;20352;-67
2022/11/17 02:44:18;;;;;;;7.38;4.60;;;5.10;84.00;;;3.24;100.00;94383.91;4891577;28;20446;-68
2022/11/17 02:46:53;;;;;;;7.93;5.13;;;5.20;84.20;;;3.24;100.00;94386.50;4876334;28;20487;-69
2022/11/17 02:49:25;;;;;;;7.30;5.30;;;5.10;84.20;;;3.26;100.00;94379.31;4878286;28;20353;-68
2022/11/17 02:52:05;;;;;;;6.32;5.40;;;5.20;84.40;;;3.28;100.00;94378.13;4869642;28;20703;-69
2022/11/17 02:54:31;;;;;;;19.05;13.82;;;5.20;84.50;;;3.31;100.00;94376.97;4859624;28;20553;-68
2022/11/17 02:56:57;;;;;;;21.40;14.70;;;5.20;84.60;;;3.33;100.00;94369.78;4855376;28;20362;-68
2022/11/17 02:59:37;;;;;;;8.70;7.45;;;5.30;84.50;;;3.38;100.00;94367.41;4855261;28;21138;-69
2022/11/17 03:02:38;;;;;;;6.55;5.38;;;5.40;84.50;;;3.40;100.00;94355.06;4871017;28;20423;-68
2022/11/17 03:05:04;;;;;;;7.72;5.20;;;5.40;84.60;;;3.41;100.00;94345.47;4886694;28;20853;-69
2022/11/17 03:08:13;;;;;;;6.18;5.22;;;5.30;84.60;;;3.43;100.00;94333.91;4903412;28;20318;-69
2022/11/17 03:10:59;;;;;;;6.00;5.22;;;5.30;84.70;;;3.44;100.00;94319.91;4889564;28;20308;-68
2022/11/17 03:13:39;;;;;;;6.18;5.40;;;5.40;84.80;;;3.46;100.00;94312.72;4886310;28;20488;-68
2022/11/17 03:16:11;;;;;;;6.53;5.40;;;5.40;84.80;;;3.47;100.00;94303.94;4887029;28;20527;-68
2022/11/17 03:19:16;;;;;;;6.38;5.43;;;5.40;85.00;;;3.49;100.00;94293.34;4887516;28;20397;-67
2022/11/17 03:21:59;;;;;;;6.82;5.25;;;5.40;84.90;;;3.51;100.00;94299.97;4862769;28;20475;-68
2022/11/17 03:24:34;;;;;;;6.22;5.50;;;5.50;85.00;;;3.52;100.00;94291.16;4886597;28;20389;-68
2022/11/17 03:27:11;;;;;;;7.32;5.53;;;5.50;85.00;;;3.52;100.00;94285.97;4886941;28;20330;-67
2022/11/17 03:29:39;;;;;;;9.88;7.50;;;5.50;85.30;;;3.54;100.00;94278.78;4877538;28;20409;-69
2022/11/17 03:32:05;;;;;;;14.18;10.27;;;5.60;85.30;;;3.53;100.00;94287.59;4871370;28;20375;-68
2022/11/17 03:34:36;;;;;;;11.02;9.05;;;5.50;85.40;;;3.55;100.00;94290.00;4868053;28;20448;-68
2022/11/17 03:37:03;;;;;;;8.82;6.85;;;5.50;85.30;;;3.55;100.00;94285.59;4866872;28;20469;-69
2022/11/17 03:39:33;;;;;;;8.57;6.97;;;5.50;85.20;;;3.56;100.00;94287.19;4867131;28;20542;-68
2022/11/17 03:42:15;;;;;;;8.38;6.07;;;5.60;85.40;;;3.57;100.00;94291.41;4868118;28;20323;-68
2022/11/17 03:44:44;;;;;;;7.50;6.13;;;5.50;85.40;;;3.58;100.00;94289.59;4873008;28;20451;-70
2022/11/17 03:47:10;;;;;;;7.22;6.10;;;5.50;85.40;;;3.58;100.00;94293.00;4885353;28;20511;-68
2022/11/17 03:49:44;;;;;;;8.68;6.53;;;5.50;85.50;;;3.56;100.00;94282.00;4886115;28;20910;-69
2022/11/17 03:52:10;;;;;;;14.70;6.97;;;5.40;85.50;;;3.54;100.00;94289.19;4887796;28;20408;-69
2022/11/17 03:54:36;;;;;;;11.55;9.13;;;5.40;85.60;;;3.55;100.00;94288.19;4889790;28;20457;-68
2022/11/17 03:57:12;;;;;;;18.10;12.35;;;5.50;85.80;;;3.54;100.00;94278.78;4851488;28;20362;-69
2022/11/17 03:59:53;;;;;;;16.88;12.85;;;5.40;86.10;;;3.55;100.00;94287.38;4850742;28;20320;-69
2022/11/17 04:02:20;;;;;;;11.15;9.02;;;5.50;86.00;;;3.55;100.00;94290.78;4882398;28;20425;-68
2022/11/17 04:05:04;;;;;;;17.10;12.18;;;5.50;85.90;;;3.57;100.00;94277.59;4851393;28;20599;-68
2022/11/17 04:07:42;;;;;;;11.52;8.68;;;5.50;86.10;;;3.61;100.00;94266.63;4840191;28;20767;-68
2022/11/17 04:10:19;;;;;;;10.10;7.53;;;5.60;85.80;;;3.61;100.00;94264.03;4854749;28;20348;-68
2022/11/17 04:18:16;;;;;;;10.93;8.45;;;5.60;85.50;;;3.66;100.00;94251.28;4877613;28;20687;-69
2022/11/17 04:20:43;;;;;;;15.30;12.40;;;5.70;85.50;;;3.67;100.00;94242.50;4868930;28;20376;-69
2022/11/17 04:23:12;;;;;;;13.60;9.18;;;5.70;85.60;;;3.68;100.00;94246.69;4854201;28;20588;-68
2022/11/17 04:28:38;;;;;;;12.80;7.80;;;5.60;85.50;;;3.71;100.00;94249.91;4866073;28;20692;-68
2022/11/17 04:31:28;;;;;;;9.13;7.70;;;5.70;85.60;;;3.73;100.00;94251.31;4862359;28;20357;-68
2022/11/17 04:33:59;;;;;;;8.52;7.25;;;5.70;85.60;;;3.77;100.00;94246.53;4875611;28;20357;-68
2022/11/17 04:36:31;;;;;;;9.13;7.53;;;5.70;85.60;;;3.79;100.00;94249.72;4862693;28;20593;-71
2022/11/17 04:38:58;;;;;;;8.85;7.20;;;5.80;85.50;;;3.82;100.00;94250.16;4879337;28;20528;-67
2022/11/17 04:44:13;;;;;;;10.90;7.45;;;5.80;85.40;;;3.87;100.00;94236.59;4859943;28;20767;-69
2022/11/17 04:46:39;;;;;;;9.32;7.90;;;5.90;85.30;;;3.89;100.00;94240.59;4837331;28;20370;-67
2022/11/17 04:49:06;;;;;;;10.27;7.57;;;5.90;85.30;;;3.90;100.00;94241.41;4835368;28;20489;-67
2022/11/17 04:51:33;;;;;;;10.63;8.30;;;5.90;85.40;;;3.93;100.00;94251.41;4839665;28;20340;-67
2022/11/17 04:54:00;;;;;;;11.18;8.30;;;5.90;85.40;;;3.95;100.00;94249.41;4853276;28;20486;-67
2022/11/17 04:56:26;;;;;;;10.25;8.27;;;6.00;85.50;;;3.96;100.00;94235.41;4889710;28;20271;-67
2022/11/17 04:58:52;;;;;;;10.80;8.20;;;6.10;85.40;;;3.99;100.00;94217.63;4887574;28;20440;-69
2022/11/17 05:01:21;;;;;;;10.02;8.02;;;6.10;85.30;;;4.00;100.00;94215.81;4870675;28;20341;-68
2022/11/17 05:03:48;;;;;;;11.57;8.35;;;6.10;85.30;;;4.02;100.00;94224.22;4828884;28;20753;-66
2022/11/17 05:06:21;;;;;;;11.13;9.23;;;6.10;85.20;;;4.01;100.00;94227.81;4883306;28;20452;-68
2022/11/17 05:08:47;;;;;;;11.02;8.60;;;6.00;85.20;;;3.99;100.00;94224.63;4853320;28;20389;-68
2022/11/17 05:13:59;;;;;;;10.85;8.95;;;5.90;85.30;;;4.01;100.00;94235.63;4866669;28;20487;-68
2022/11/17 05:19:20;;;;;;;10.63;8.65;;;6.10;85.50;;;4.06;100.00;94255.84;4871892;28;20411;-67
2022/11/17 05:21:46;;;;;;;13.07;9.30;;;6.10;85.70;;;4.07;100.00;94268.66;4868889;28;20492;-68
2022/11/17 05:24:15;;;;;;;12.88;9.38;;;6.10;85.70;;;4.08;100.00;94259.09;4882562;28;20304;-69
2022/11/17 05:26:42;;;;;;;11.50;9.40;;;6.10;85.60;;;4.13;100.00;94275.72;4874112;28;20492;-68
2022/11/17 05:29:09;;;;;;;15.50;9.43;;;6.20;85.70;;;4.16;100.00;94282.31;4864201;28;20630;-67
2022/11/17 05:31:35;;;;;;;11.20;8.93;;;6.20;85.50;;;4.17;100.00;94274.31;4862728;28;20441;-68
2022/11/17 05:34:02;;;;;;;11.40;9.20;;;6.20;85.50;;;4.19;100.00;94276.72;4888104;28;20630;-68
2022/11/17 05:36:28;;;;;;;10.55;8.98;;;6.20;85.50;;;4.22;100.00;94287.56;4852028;28;20371;-67
2022/11/17 05:38:54;;;;;;;11.77;9.77;;;6.20;85.70;;;4.22;100.00;94308.38;4850947;28;20483;-67
2022/11/17 05:41:20;;;;;;;12.52;9.68;;;6.20;85.70;;;4.21;100.00;94293.75;4882342;28;20042;-67
2022/11/17 05:43:49;;;;;;;12.63;10.10;;;6.10;86.10;;;4.20;100.00;94279.13;4871368;28;20933;-68
2022/11/17 05:46:19;;;;;;;12.65;10.07;;;6.10;86.20;;;4.23;100.00;94320.38;4866992;28;20509;-67
2022/11/17 05:48:45;;;;;;;15.27;9.93;;;6.10;86.10;;;4.22;100.00;94310.97;4879695;28;20651;-67
2022/11/17 05:51:11;;;;;;;12.40;10.18;;;6.10;86.30;;;4.23;100.00;94322.97;4883654;28;20363;-67
2022/11/17 05:53:37;;;;;;;13.35;9.52;;;6.20;86.30;;;4.26;100.00;94319.19;4886077;28;20657;-67
2022/11/17 05:56:08;;;;;;;11.55;9.52;;;6.20;86.00;;;4.27;100.00;94326.78;4871844;28;20854;-70
2022/11/17 05:58:35;;;;;;;12.35;9.43;;;6.20;86.10;;;4.29;100.00;94311.78;4907422;28;20308;-68
2022/11/17 06:01:01;;;;;;;12.32;9.65;;;6.20;86.20;;;4.32;100.00;94328.03;4864728;28;20435;-67
2022/11/17 06:03:34;;;;;;;12.63;9.60;;;6.30;86.20;;;4.33;100.00;94316.63;4865970;28;20368;-68
2022/11/17 06:06:00;;;;;;;12.93;9.40;;;6.30;86.10;;;4.34;100.00;94328.66;4837552;28;20404;-67
2022/11/17 06:08:28;;;;;;;11.65;9.70;;;6.30;86.10;;;4.35;100.00;94332.84;4834798;28;20224;-69
2022/11/17 06:10:54;;;;;;;11.52;9.45;;;6.30;86.10;;;4.36;100.00;94318.84;4843163;28;20441;-66
2022/11/17 06:13:24;;;;;;;12.13;9.60;;;6.30;86.10;;;4.38;100.00;94314.25;4835438;28;20508;-67
2022/11/17 06:15:53;;;;;;;11.90;9.53;;;6.30;86.20;;;4.40;100.00;94309.66;4877296;28;20802;-67
2022/11/17 06:18:19;;;;;;;11.50;9.30;;;6.40;86.00;;;4.41;100.00;94332.88;4875764;28;20831;-66
2022/11/17 06:20:47;;;;;;;12.70;9.57;;;6.40;85.90;;;4.42;100.00;94324.06;4862833;28;20578;-69
2022/11/17 06:23:13;;;;;;;11.32;9.10;;;6.30;86.10;;;4.43;100.00;94322.25;4858347;28;20361;-69
2022/11/17 06:25:40;;;;;;;12.85;9.57;;;6.40;86.20;;;4.46;100.00;94314.06;4873808;28;20489;-67
2022/11/17 06:28:09;;;;;;;13.55;10.48;;;6.40;86.20;;;4.46;100.00;94296.66;4882401;28;20349;-68
2022/11/17 06:30:35;;;;;;;12.60;9.35;;;6.50;86.00;;;4.48;100.00;94279.03;4874921;28;20444;-68
2022/11/17 06:33:01;;;;;;;11.63;9.65;;;6.50;85.90;;;4.49;100.00;94275.44;4874998;28;20392;-69
2022/11/17 06:35:32;;;;;;;12.07;9.90;;;6.50;85.90;;;4.51;100.00;94285.63;4889482;28;20342;-67
2022/11/17 06:37:58;;;;;;;11.02;8.77;;;6.60;85.70;;;4.52;100.00;94269.03;4875222;28;20423;-66
2022/11/17 06:40:25;;;;;;;12.48;8.93;;;6.60;85.80;;;4.54;100.00;94256.63;4875838;28;20347;-66
2022/11/17 06:43:07;;;;;;;13.32;10.93;;;6.60;85.80;;;4.53;100.00;94253.22;4875598;28;20349;-66
2022/11/17 06:45:41;;;;;;;14.75;10.93;;;6.60;85.70;;;4.54;100.00;94254.84;4874378;28;20306;-67
2022/11/17 06:48:07;;;;;;;13.90;11.20;;;6.60;85.80;;;4.58;100.00;94263.06;4841232;28;20344;-67
2022/11/17 06:50:33;;;;;;;12.48;10.27;;;6.60;85.70;;;4.59;100.00;94256.84;4841014;28;20490;-68
2022/11/17 06:53:02;;;;;;;15.00;11.68;;;6.60;85.70;;;4.60;100.00;94274.06;4886304;28;20586;-68
2022/11/17 06:55:29;;;;;;;13.73;10.45;;;6.60;85.90;;;4.61;100.00;94280.88;4847223;28;20328;-69
2022/11/17 06:58:07;;;;;;;14.90;11.45;;;6.60;86.00;;;4.65;100.00;94292.50;4827590;28;20358;-68
2022/11/17 07:00:34;;;;;;;13.57;10.02;;;6.70;85.90;;;4.65;100.00;94297.72;4873893;28;20407;-68
2022/11/17 07:03:05;;;;;;;13.02;9.40;;;6.60;85.90;;;4.64;100.00;94293.50;4852966;28;20531;-68
2022/11/17 07:05:32;;;;;;;13.13;10.40;;;6.60;86.20;;;4.65;100.00;94296.91;4873394;28;20544;-69
2022/11/17 07:08:03;;;;;;;11.75;9.88;;;6.60;86.20;;;4.68;100.00;94305.13;4851682;28;20305;-68
2022/11/17 07:10:29;;;;;;;12.10;9.77;;;6.60;86.20;;;4.71;100.00;94317.75;4868985;28;20313;-68
2022/11/17 07:12:55;;;;;;;13.82;10.63;;;6.70;86.10;;;4.73;100.00;94320.94;4844048;28;20346;-68
2022/11/17 07:15:22;;;;;;;14.52;11.00;;;6.70;85.90;;;4.71;100.00;94307.31;4838243;28;20364;-68
2022/11/17 07:17:48;;;;;;;14.85;10.75;;;6.60;86.00;;;4.71;100.00;94307.31;4856531;28;20387;-67
2022/11/17 07:20:14;;;;;;;14.38;10.65;;;6.60;86.30;;;4.77;100.00;94316.19;4871412;28;20349;-69
2022/11/17 07:22:40;;;;;;;14.25;10.38;;;6.70;86.20;;;4.79;100.00;94304.56;4871212;28;20314;-67
2022/11/17 07:25:06;;;;;;;15.65;10.52;;;6.80;86.00;;;4.81;100.00;94318.19;4858766;28;20756;-67
2022/11/17 07:27:33;;;;;;;12.18;10.23;;;6.90;86.00;;;4.84;100.00;94309.19;4871258;28;20416;-68
2022/11/17 07:29:59;;;;;;;11.88;10.13;;;6.80;85.80;;;4.84;100.00;94309.97;4860175;28;20496;-67
2022/11/17 07:32:25;;;;;;;13.50;11.05;;;6.80;85.90;;;4.83;100.00;94310.19;4858211;28;20617;-69
2022/11/17 07:34:51;;;;;;;14.60;10.93;;;6.70;86.20;;;4.83;100.00;94331.00;4876936;28;20502;-69
2022/11/17 07:37:18;;;;;;;15.02;10.63;;;6.70;86.10;;;4.86;100.00;94336.63;4873650;28;20332;-69
2022/11/17 07:39:44;;;;;;;13.13;10.48;;;6.80;86.00;;;4.86;100.00;94326.22;4873251;28;20363;-68
2022/11/17 07:42:10;;;;;;;12.90;10.57;;;6.80;85.80;;;4.87;100.00;94324.41;4861643;28;20642;-70
2022/11/17 07:44:37;;;;;;;13.15;10.38;;;6.90;85.90;;;4.89;100.00;94322.41;4870968;28;20570;-69
2022/11/17 07:47:03;;;;;;;10.65;9.40;;;6.80;85.90;;;4.89;100.00;94320.59;4874587;28;20483;-67
2022/11/17 07:49:29;;;;;;;11.00;8.95;;;6.80;85.90;;;4.93;100.00;94331.41;4868238;28;20486;-68
2022/11/17 07:51:55;;;;;;;11.88;8.68;;;6.90;85.80;;;4.95;100.00;94326.00;4851747;28;20327;-67
2022/11/17 07:54:21;;;;;;;10.25;8.65;;;7.00;85.70;;;4.97;100.00;94326.63;4853099;28;20684;-67
2022/11/17 07:56:47;;;;;;;11.13;8.73;;;6.90;85.50;;;4.96;100.00;94331.03;4850704;28;20592;-67
2022/11/17 07:59:13;;;;;;;11.02;8.68;;;6.90;85.90;;;4.97;100.00;94326.63;4837596;28;20357;-65
2022/11/17 08:01:39;;;;;;;9.30;7.78;;;6.90;85.80;;;4.95;100.00;94331.22;4841132;28;20312;-65
2022/11/17 08:04:05;;;;;;;9.30;7.72;;;6.90;86.00;;;4.97;100.00;94339.63;4843811;28;20358;-65
2022/11/17 08:06:31;;;;;;;13.23;8.05;;;7.00;85.90;;;5.02;100.00;94345.09;4822855;28;20397;-65
2022/11/17 08:08:57;;;;;;;9.95;8.23;;;7.10;85.90;;;5.07;100.00;94347.91;4821368;28;20569;-64
2022/11/17 08:11:27;;;;;;;10.10;7.82;;;7.10;86.00;;;5.10;100.00;94350.09;4852008;28;20330;-64
2022/11/17 08:13:53;;;;;;;9.70;7.65;;;7.10;85.90;;;5.11;100.00;94336.88;4863266;28;20702;-65
2022/11/17 08:16:19;;;;;;;13.88;7.22;;;7.10;85.70;;;5.13;100.00;94341.88;4876358;28;20610;-65
2022/11/17 08:18:45;;;;;;;12.63;7.45;;;7.10;85.60;;;5.16;100.00;94341.47;4858031;28;20373;-65
2022/11/17 08:21:13;;;;;;;8.88;7.45;;;7.20;85.60;;;5.19;100.00;94341.88;4842838;28;20361;-65
2022/11/17 08:23:42;;;;;;;10.23;7.80;;;7.30;85.50;;;5.26;100.00;94359.34;4861856;28;20444;-66
2022/11/17 08:26:10;;;;;;;10.65;7.15;;;7.30;85.60;;;5.30;100.00;94369.19;4933260;28;20037;-65
2022/11/17 08:28:36;;;;;;;10.00;7.15;;;7.40;85.40;;;5.36;100.00;94386.63;4867681;28;20838;-66
2022/11/17 08:31:03;;;;;;;8.98;7.22;;;7.50;85.30;;;5.41;100.00;94392.03;4868171;28;20595;-66
2022/11/17 08:33:30;;;;;;;9.85;7.90;;;7.50;85.40;;;5.43;100.00;94384.03;4868581;28;20491;-65
2022/11/17 08:35:57;;;;;;;20.10;14.63;;;7.40;85.50;;;5.47;100.00;94359.97;4884599;28;20501;-65
2022/11/17 08:38:27;;;;;;;11.57;10.02;;;7.60;85.80;;;5.54;100.00;94345.13;4878898;28;20373;-65
2022/11/17 08:40:57;;;;;;;7.60;6.60;;;7.70;85.50;;;5.59;100.00;94335.91;4871937;28;20597;-65
2022/11/17 08:43:23;;;;;;;11.45;7.60;;;7.60;85.20;;;5.60;100.00;94321.84;4870140;28;20356;-65
2022/11/17 08:45:49;;;;;;;10.55;7.55;;;7.60;85.30;;;5.61;100.00;94316.44;4868298;28;20368;-66
2022/11/17 08:48:15;;;;;;;10.52;7.35;;;7.60;85.70;;;5.64;100.00;94312.63;4867419;28;20353;-68
2022/11/17 08:50:42;;;;;;;10.75;7.10;;;7.60;85.90;;;5.69;100.00;94311.03;4867279;28;20212;-70
2022/11/17 08:53:13;;;;;;;11.18;7.03;;;7.80;85.90;;;5.77;100.00;94308.19;4879548;28;20457;-68
2022/11/17 08:55:39;;;;;;;8.73;6.35;;;7.80;85.90;;;5.81;100.00;94303.38;4869065;28;20385;-67
2022/11/17 08:58:05;;;;;;;8.43;6.20;;;7.80;86.20;;;5.86;100.00;94300.94;4884304;28;20323;-68
2022/11/17 09:00:31;;;;;;;8.65;6.22;;;7.90;86.10;;;5.91;100.00;94309.03;4887443;28;20454;-68
2022/11/17 09:02:57;;;;;;;9.52;6.90;;;7.90;86.10;;;5.97;100.00;94323.84;4852747;28;20327;-68
2022/11/17 09:05:23;;;;;;;8.73;6.40;;;8.00;86.30;;;6.02;100.00;94342.31;4867126;28;20322;-68
2022/11/17 09:07:50;;;;;;;6.72;5.07;;;8.00;86.20;;;6.08;100.00;94346.69;4851325;28;20342;-67
2022/11/17 09:10:16;;;;;;;7.07;5.07;;;8.10;86.20;;;6.16;100.00;94326.63;4882477;28;20428;-68
2022/11/17 09:12:42;;;;;;;9.50;5.35;;;8.20;85.60;;;6.21;100.00;94311.16;4865656;28;20778;-70
2022/11/17 09:15:09;;;;;;;9.27;5.68;;;8.40;85.40;;;6.29;100.00;94298.66;4876428;28;20324;-69
2022/11/17 09:17:36;;;;;;;8.07;5.72;;;8.50;85.10;;;6.39;100.00;94300.84;4854427;28;20638;-69
2022/11/17 09:20:02;;;;;;;11.13;5.28;;;8.60;84.80;;;6.49;100.00;94295.97;4882608;28;20357;-69
2022/11/17 09:22:28;;;;;;;5.25;4.45;;;8.80;84.80;;;6.62;100.00;94311.59;4870769;28;20365;-69
2022/11/17 09:24:54;;;;;;;8.15;3.92;;;9.00;84.30;;;6.85;100.00;94290.19;4878379;28;20405;-67
2022/11/17 09:27:20;;;;;;;8.38;4.40;;;11.20;79.40;;;7.23;100.00;94287.50;4852066;28;20265;-68
2022/11/17 09:29:47;;;;;;;6.43;3.60;;;12.80;73.80;;;7.57;100.00;94283.63;4871313;28;20350;-68
2022/11/17 09:32:15;;;;;;;4.65;3.28;;;13.20;72.10;;;7.97;100.00;94291.91;4884523;28;20138;-67
2022/11/17 09:34:41;;;;;;;5.05;3.00;;;14.70;67.50;;;8.45;100.00;94285.16;4871292;28;20356;-68
2022/11/17 09:37:07;;;;;;;6.22;2.90;;;15.70;63.90;;;9.04;100.00;94288.81;4878957;28;20397;-67
2022/11/17 09:39:33;;;;;;;4.82;2.42;;;17.80;57.70;;;9.54;100.00;94286.66;4852379;28;20360;-70
2022/11/17 09:42:03;;;;;;;4.80;2.53;;;17.10;57.60;;;9.96;100.00;94286.56;4841249;28;20476;-70
2022/11/17 09:44:40;;;;;;;6.60;2.05;;;17.50;58.00;;;10.60;100.00;94282.94;4886440;28;20243;-67
2022/11/17 09:47:28;;;;;;;4.05;2.25;;;18.70;52.70;;;11.38;100.00;94289.34;4886944;28;20483;-69
2022/11/17 09:50:22;;;;;;;4.50;2.17;;;20.20;49.50;;;12.16;100.00;94300.84;4880880;28;20349;-68
2022/11/17 09:53:09;;;;;;;5.68;2.28;;;21.20;46.40;;;12.97;100.00;94306.34;4853732;28;20411;-67
2022/11/17 09:55:39;;;;;;;5.20;1.88;;;22.10;45.10;;;13.54;100.00;94311.16;4899201;28;20334;-68
2022/11/17 09:58:38;;;;;;;4.78;2.20;;;22.40;44.60;;;14.14;100.00;94299.47;4889246;28;20144;-69
2022/11/17 10:01:04;;;;;;;6.20;1.95;;;22.80;43.20;;;14.47;100.00;94299.16;4870992;28;20342;-68
2022/11/17 10:03:31;;;;;;;4.25;1.95;;;21.10;46.00;;;14.49;100.00;94305.03;4849113;28;20319;-66
2022/11/17 10:05:58;;;;;;;3.70;2.13;;;19.40;49.80;;;14.41;100.00;94305.47;4870196;28;20045;-68
2022/11/17 10:08:42;;;;;;;4.60;1.90;;;18.70;51.80;;;14.29;97.22;94302.22;4848330;28;20300;-68
2022/11/17 10:11:32;;;;;;;5.00;2.35;;;17.80;53.60;;;14.16;96.54;94303.47;4854003;28;20405;-68
2022/11/17 10:14:07;;;;;;;4.65;2.78;;;17.60;55.20;;;13.96;95.59;94301.47;4890096;28;20343;-67
2022/11/17 10:16:34;;;;;;;3.20;1.98;;;17.00;57.30;;;13.76;98.01;94309.25;4892354;28;20367;-68
2022/11/17 10:19:17;;;;;;;2.72;1.80;;;16.50;58.50;;;13.54;95.81;94308.53;4849906;28;20436;-68
2022/11/17 10:21:44;;;;;;;4.10;1.83;;;16.10;60.50;;;13.41;98.60;94307.91;4864182;28;20371;-68
2022/11/17 10:24:10;;;;;;;3.70;2.05;;;16.50;60.30;;;13.31;98.72;94302.50;4877596;28;20521;-67
2022/11/17 10:26:46;;;;;;;7.32;5.10;;;16.10;60.80;;;13.18;99.84;94303.72;4865121;28;20835;-68
2022/11/17 10:29:14;;;;;;;4.70;3.25;;;15.80;62.20;;;13.02;100.00;94309.84;4862090;28;20476;-70
2022/11/17 10:31:43;;;;;;;3.13;1.80;;;15.40;63.40;;;12.86;99.51;94316.78;4880019;28;20944;-70
2022/11/17 10:34:11;;;;;;;3.55;1.90;;;15.10;64.50;;;12.69;100.00;94302.09;4854810;28;20550;-69
2022/11/17 10:36:43;;;;;;;4.65;2.08;;;14.90;66.10;;;12.60;100.00;94306.97;4866632;28;20381;-70
2022/11/17 10:39:10;;;;;;;4.55;2.50;;;15.30;66.20;;;12.64;100.00;94291.44;4887385;28;20368;-70
2022/11/17 10:41:39;;;;;;;4.43;2.35;;;15.70;65.30;;;12.67;100.00;94286.47;4882269;28;20486;-69
2022/11/17 10:44:29;;;;;;;5.22;2.42;;;15.50;64.40;;;12.71;100.00;94290.25;4851483;28;20677;-67
2022/11/17 10:46:56;;;;;;;5.40;2.95;;;15.50;65.10;;;12.74;100.00;94289.75;4855136;28;20439;-69
2022/11/17 10:49:31;;;;;;;3.92;2.75;;;15.60;64.10;;;12.76;100.00;94295.56;4868171;28;20571;-70
2022/11/17 10:52:10;;;;;;;6.05;2.90;;;15.40;65.10;;;12.77;100.00;94285.81;4866816;28;20297;-68
2022/11/17 10:54:36;;;;;;;5.82;3.75;;;15.50;65.20;;;12.83;100.00;94288.25;4905749;28;20734;-67
2022/11/17 10:57:07;;;;;;;15.27;10.15;;;16.10;63.70;;;13.00;100.00;94290.03;4864277;28;20366;-70
2022/11/17 10:59:45;;;;;;;11.73;9.38;;;16.80;61.00;;;13.34;100.00;94291.44;4864141;28;20322;-68